Villa Park, California
Current Conditions -  °F | °C
As of 3:53 PM on Sunday 23 Nov 2014 (Local Time) from KSNA Reporting Station
Broken Clouds Broken Clouds  
Wind Chill: 79°   Ceiling: 25000
Heat Index: 79°   Visibility: 10mi
Dew Point: 21°   Wind: 6mph
Humidity: 12%   Direction: 360°N
Pressure: 30.07"   Gusts: NA
Location:  33.81°N, 117.82°W
Report Text: KSNA 232353Z 36005KT 10SM BKN250 26/M06 A3007 RMK AO2 SLP182 T02611061 10294 20244 53006 $
Loading
Personal Weather Stations






























Interactive Weather Map New forecast layout! Learn more

10-Day Weather Forecast

Advertisements
Track Severe Weather on mobile